sensor_id;sensor_type;location;lat;lon;timestamp;pressure;altitude;pressure_sealevel;temperature;humidity
80382;BME280;69692;55.820;37.490;2024-03-02T00:00:20;101072.16;;;5.42;68.08
80382;BME280;69692;55.820;37.490;2024-03-02T00:02:51;101076.38;;;5.53;67.96
80382;BME280;69692;55.820;37.490;2024-03-02T00:05:21;101078.38;;;5.51;68.12
80382;BME280;69692;55.820;37.490;2024-03-02T00:07:56;101076.53;;;5.51;68.00
80382;BME280;69692;55.820;37.490;2024-03-02T00:10:27;101072.72;;;5.54;67.49
80382;BME280;69692;55.820;37.490;2024-03-02T00:12:57;101065.88;;;5.51;68.39
80382;BME280;69692;55.820;37.490;2024-03-02T00:18:13;101056.81;;;5.44;68.42
80382;BME280;69692;55.820;37.490;2024-03-02T00:20:39;101069.16;;;5.45;68.22
80382;BME280;69692;55.820;37.490;2024-03-02T00:23:07;101057.50;;;5.46;67.75
80382;BME280;69692;55.820;37.490;2024-03-02T00:28:20;101061.00;;;5.47;68.11
80382;BME280;69692;55.820;37.490;2024-03-02T00:33:27;101067.00;;;5.49;67.96
80382;BME280;69692;55.820;37.490;2024-03-02T00:35:53;101065.69;;;5.53;68.06
80382;BME280;69692;55.820;37.490;2024-03-02T00:38:20;101067.72;;;5.51;68.03
80382;BME280;69692;55.820;37.490;2024-03-02T00:40:46;101066.84;;;5.50;67.75
80382;BME280;69692;55.820;37.490;2024-03-02T00:46:07;101061.28;;;5.35;67.82
80382;BME280;69692;55.820;37.490;2024-03-02T00:48:33;101061.94;;;5.29;68.70
80382;BME280;69692;55.820;37.490;2024-03-02T00:51:03;101066.78;;;5.26;68.50
80382;BME280;69692;55.820;37.490;2024-03-02T00:53:32;101072.47;;;5.31;68.56
80382;BME280;69692;55.820;37.490;2024-03-02T00:55:59;101070.63;;;5.31;69.32
80382;BME280;69692;55.820;37.490;2024-03-02T00:58:26;101068.28;;;5.28;68.02
80382;BME280;69692;55.820;37.490;2024-03-02T01:00:52;101070.78;;;5.30;68.51
80382;BME280;69692;55.820;37.490;2024-03-02T01:03:18;101073.97;;;5.33;69.38
80382;BME280;69692;55.820;37.490;2024-03-02T01:05:45;101074.34;;;5.38;68.24
80382;BME280;69692;55.820;37.490;2024-03-02T01:08:11;101081.34;;;5.39;68.45
80382;BME280;69692;55.820;37.490;2024-03-02T01:10:36;101079.00;;;5.36;68.17
80382;BME280;69692;55.820;37.490;2024-03-02T01:13:02;101088.69;;;5.37;67.42
80382;BME280;69692;55.820;37.490;2024-03-02T01:15:28;101089.97;;;5.33;68.07
80382;BME280;69692;55.820;37.490;2024-03-02T01:17:54;101093.47;;;5.34;68.74
80382;BME280;69692;55.820;37.490;2024-03-02T01:20:20;101088.50;;;5.39;68.12
80382;BME280;69692;55.820;37.490;2024-03-02T01:22:47;101083.69;;;5.43;68.34
80382;BME280;69692;55.820;37.490;2024-03-02T01:25:13;101084.81;;;5.32;68.18
80382;BME280;69692;55.820;37.490;2024-03-02T01:27:39;101083.97;;;5.31;68.23
80382;BME280;69692;55.820;37.490;2024-03-02T01:30:06;101079.47;;;5.32;67.82
80382;BME280;69692;55.820;37.490;2024-03-02T01:32:32;101090.63;;;5.27;68.49
80382;BME280;69692;55.820;37.490;2024-03-02T01:34:58;101080.28;;;5.24;69.53
80382;BME280;69692;55.820;37.490;2024-03-02T01:37:24;101080.28;;;5.24;68.29
80382;BME280;69692;55.820;37.490;2024-03-02T01:39:49;101086.63;;;5.23;69.32
80382;BME280;69692;55.820;37.490;2024-03-02T01:42:15;101075.28;;;5.21;68.36
80382;BME280;69692;55.820;37.490;2024-03-02T01:44:41;101080.44;;;5.23;69.08
80382;BME280;69692;55.820;37.490;2024-03-02T01:47:08;101080.59;;;5.21;69.50
80382;BME280;69692;55.820;37.490;2024-03-02T01:49:34;101080.59;;;5.21;68.65
80382;BME280;69692;55.820;37.490;2024-03-02T01:52:00;101088.22;;;5.16;69.14
80382;BME280;69692;55.820;37.490;2024-03-02T01:54:25;101085.56;;;5.16;68.27
80382;BME280;69692;55.820;37.490;2024-03-02T01:56:51;101080.75;;;5.20;69.28
80382;BME280;69692;55.820;37.490;2024-03-02T01:59:18;101083.13;;;5.23;68.73
80382;BME280;69692;55.820;37.490;2024-03-02T02:01:44;101078.06;;;5.20;68.66
80382;BME280;69692;55.820;37.490;2024-03-02T02:04:10;101081.75;;;5.19;69.04
80382;BME280;69692;55.820;37.490;2024-03-02T02:06:36;101088.06;;;5.18;68.70
80382;BME280;69692;55.820;37.490;2024-03-02T02:09:01;101085.56;;;5.16;68.85
80382;BME280;69692;55.820;37.490;2024-03-02T02:11:28;101079.56;;;5.14;69.63
80382;BME280;69692;55.820;37.490;2024-03-02T02:13:54;101080.56;;;5.13;68.88
80382;BME280;69692;55.820;37.490;2024-03-02T02:16:21;101079.91;;;5.19;68.94
80382;BME280;69692;55.820;37.490;2024-03-02T02:18:47;101085.94;;;5.21;69.45
80382;BME280;69692;55.820;37.490;2024-03-02T02:21:14;101084.94;;;5.22;69.26
80382;BME280;69692;55.820;37.490;2024-03-02T02:23:39;101084.94;;;5.22;68.58
80382;BME280;69692;55.820;37.490;2024-03-02T02:26:05;101087.63;;;5.22;69.54
80382;BME280;69692;55.820;37.490;2024-03-02T02:28:31;101087.72;;;5.13;68.59
80382;BME280;69692;55.820;37.490;2024-03-02T02:30:57;101094.22;;;5.10;69.22
80382;BME280;69692;55.820;37.490;2024-03-02T02:33:23;101094.91;;;5.12;69.46
80382;BME280;69692;55.820;37.490;2024-03-02T02:35:49;101098.22;;;5.14;69.59
80382;BME280;69692;55.820;37.490;2024-03-02T02:38:15;101102.56;;;5.15;69.29
80382;BME280;69692;55.820;37.490;2024-03-02T02:40:41;101096.56;;;5.13;69.53
80382;BME280;69692;55.820;37.490;2024-03-02T02:43:07;101096.41;;;5.15;69.88
80382;BME280;69692;55.820;37.490;2024-03-02T02:45:33;101096.41;;;5.15;69.32
80382;BME280;69692;55.820;37.490;2024-03-02T02:47:59;101096.91;;;5.18;68.80
80382;BME280;69692;55.820;37.490;2024-03-02T02:50:26;101092.41;;;5.19;68.78
80382;BME280;69692;55.820;37.490;2024-03-02T02:52:52;101099.75;;;5.17;69.52
80382;BME280;69692;55.820;37.490;2024-03-02T02:55:18;101105.41;;;5.14;68.62
80382;BME280;69692;55.820;37.490;2024-03-02T02:57:44;101102.25;;;5.18;68.57
80382;BME280;69692;55.820;37.490;2024-03-02T03:00:14;101101.25;;;5.19;68.84
80382;BME280;69692;55.820;37.490;2024-03-02T03:02:44;101097.91;;;5.17;69.13
80382;BME280;69692;55.820;37.490;2024-03-02T03:05:12;101096.56;;;5.13;68.86
80382;BME280;69692;55.820;37.490;2024-03-02T03:07:41;101103.91;;;5.11;68.57
80382;BME280;69692;55.820;37.490;2024-03-02T03:10:08;101100.19;;;5.04;69.43
80382;BME280;69692;55.820;37.490;2024-03-02T03:12:34;101104.72;;;5.12;68.54
80382;BME280;69692;55.820;37.490;2024-03-02T03:15:01;101104.41;;;5.15;68.79
80382;BME280;69692;55.820;37.490;2024-03-02T03:17:30;101111.91;;;5.11;68.80
80382;BME280;69692;55.820;37.490;2024-03-02T03:19:56;101111.06;;;5.11;68.70
80382;BME280;69692;55.820;37.490;2024-03-02T03:22:22;101108.75;;;5.16;68.63
80382;BME280;69692;55.820;37.490;2024-03-02T03:24:48;101105.06;;;5.17;68.56
80382;BME280;69692;55.820;37.490;2024-03-02T03:27:13;101103.72;;;5.13;68.88
80382;BME280;69692;55.820;37.490;2024-03-02T03:29:39;101107.41;;;5.12;68.86
80382;BME280;69692;55.820;37.490;2024-03-02T03:32:06;101102.56;;;5.07;68.03
80382;BME280;69692;55.820;37.490;2024-03-02T03:34:33;101110.06;;;5.12;68.80
80382;BME280;69692;55.820;37.490;2024-03-02T03:36:59;101104.91;;;5.18;69.20
80382;BME280;69692;55.820;37.490;2024-03-02T03:39:25;101100.47;;;5.27;67.83
80382;BME280;69692;55.820;37.490;2024-03-02T03:41:51;101097.97;;;5.33;67.45
80382;BME280;69692;55.820;37.490;2024-03-02T03:44:17;101094.13;;;5.28;67.78
80382;BME280;69692;55.820;37.490;2024-03-02T03:46:43;101089.28;;;5.23;67.53
80382;BME280;69692;55.820;37.490;2024-03-02T03:49:09;101092.13;;;5.22;68.01
80382;BME280;69692;55.820;37.490;2024-03-02T03:51:34;101091.94;;;5.23;67.75
80382;BME280;69692;55.820;37.490;2024-03-02T03:54:01;101101.63;;;5.24;67.48
80382;BME280;69692;55.820;37.490;2024-03-02T03:56:27;101085.56;;;5.16;68.23
80382;BME280;69692;55.820;37.490;2024-03-02T03:58:53;101092.56;;;5.17;67.87
80382;BME280;69692;55.820;37.490;2024-03-02T04:01:19;101089.75;;;5.19;67.53
80382;BME280;69692;55.820;37.490;2024-03-02T04:03:45;101087.41;;;5.16;68.34
80382;BME280;69692;55.820;37.490;2024-03-02T04:06:10;101085.22;;;5.11;67.89
80382;BME280;69692;55.820;37.490;2024-03-02T04:08:36;101090.56;;;5.11;67.86
80382;BME280;69692;55.820;37.490;2024-03-02T04:11:02;101091.56;;;5.10;68.14
80382;BME280;69692;55.820;37.490;2024-03-02T04:13:29;101092.22;;;5.12;68.46
80382;BME280;69692;55.820;37.490;2024-03-02T04:15:55;101084.06;;;5.14;67.88
80382;BME280;69692;55.820;37.490;2024-03-02T04:18:21;101092.94;;;5.22;67.38
80382;BME280;69692;55.820;37.490;2024-03-02T04:20:47;101096.28;;;5.24;67.48
80382;BME280;69692;55.820;37.490;2024-03-02T04:23:13;101095.97;;;5.27;66.92
80382;BME280;69692;55.820;37.490;2024-03-02T04:25:39;101100.13;;;5.22;67.99
80382;BME280;69692;55.820;37.490;2024-03-02T04:28:04;101094.91;;;5.20;66.99
80382;BME280;69692;55.820;37.490;2024-03-02T04:30:30;101102.31;;;5.26;68.20
80382;BME280;69692;55.820;37.490;2024-03-02T04:32:56;101094.91;;;5.20;67.12
80382;BME280;69692;55.820;37.490;2024-03-02T04:35:22;101093.25;;;5.19;66.94
80382;BME280;69692;55.820;37.490;2024-03-02T04:37:48;101097.59;;;5.20;67.41
80382;BME280;69692;55.820;37.490;2024-03-02T04:40:14;101096.47;;;5.23;67.50
80382;BME280;69692;55.820;37.490;2024-03-02T04:42:40;101094.06;;;5.12;67.36
80382;BME280;69692;55.820;37.490;2024-03-02T04:45:06;101100.06;;;5.14;68.10
80382;BME280;69692;55.820;37.490;2024-03-02T04:47:32;101097.88;;;5.09;67.29
80382;BME280;69692;55.820;37.490;2024-03-02T04:49:58;101108.56;;;5.09;67.88
80382;BME280;69692;55.820;37.490;2024-03-02T04:52:25;101094.72;;;5.14;67.63
80382;BME280;69692;55.820;37.490;2024-03-02T04:54:51;101099.22;;;5.13;67.39
80382;BME280;69692;55.820;37.490;2024-03-02T04:57:35;101096.41;;;5.15;66.83
80382;BME280;69692;55.820;37.490;2024-03-02T05:00:01;101097.06;;;5.08;67.47
80382;BME280;69692;55.820;37.490;2024-03-02T05:02:27;101097.66;;;5.02;68.23
80382;BME280;69692;55.820;37.490;2024-03-02T05:04:53;101093.31;;;4.93;67.48
80382;BME280;69692;55.820;37.490;2024-03-02T05:07:19;101098.41;;;4.87;68.34
80382;BME280;69692;55.820;37.490;2024-03-02T05:09:45;101096.84;;;4.76;68.15
80382;BME280;69692;55.820;37.490;2024-03-02T05:12:11;101094.06;;;4.86;68.45
80382;BME280;69692;55.820;37.490;2024-03-02T05:15:10;101092.25;;;4.86;68.95
80382;BME280;69692;55.820;37.490;2024-03-02T05:17:40;101090.63;;;4.93;67.71
80382;BME280;69692;55.820;37.490;2024-03-02T05:20:07;101094.06;;;4.86;68.74
80382;BME280;69692;55.820;37.490;2024-03-02T05:22:34;101088.72;;;4.77;68.81
80382;BME280;69692;55.820;37.490;2024-03-02T05:25:01;101092.91;;;4.88;68.77
80382;BME280;69692;55.820;37.490;2024-03-02T05:27:30;101095.66;;;4.96;68.26
80382;BME280;69692;55.820;37.490;2024-03-02T05:29:59;101093.84;;;5.05;67.80
80382;BME280;69692;55.820;37.490;2024-03-02T05:32:25;101097.06;;;5.08;68.08
80382;BME280;69692;55.820;37.490;2024-03-02T05:34:51;101098.50;;;5.03;67.69
80382;BME280;69692;55.820;37.490;2024-03-02T05:37:17;101097.09;;;4.91;68.17
80382;BME280;69692;55.820;37.490;2024-03-02T05:39:43;101103.66;;;4.96;67.89
80382;BME280;69692;55.820;37.490;2024-03-02T05:42:10;101100.63;;;4.91;68.37
80382;BME280;69692;55.820;37.490;2024-03-02T05:44:36;101108.47;;;4.93;68.90
80382;BME280;69692;55.820;37.490;2024-03-02T05:47:02;101108.31;;;4.94;67.88
80382;BME280;69692;55.820;37.490;2024-03-02T05:49:29;101107.34;;;5.03;67.53
80382;BME280;69692;55.820;37.490;2024-03-02T05:51:55;101114.47;;;4.95;67.60
80382;BME280;69692;55.820;37.490;2024-03-02T05:54:21;101111.91;;;4.85;68.12
80382;BME280;69692;55.820;37.490;2024-03-02T05:56:47;101110.56;;;4.81;69.16
80382;BME280;69692;55.820;37.490;2024-03-02T05:59:14;101111.06;;;4.85;68.84
80382;BME280;69692;55.820;37.490;2024-03-02T06:01:43;101122.94;;;4.90;68.06
80382;BME280;69692;55.820;37.490;2024-03-02T06:04:12;101115.16;;;4.97;67.57
80382;BME280;69692;55.820;37.490;2024-03-02T06:06:38;101121.66;;;4.94;67.83
80382;BME280;69692;55.820;37.490;2024-03-02T06:09:05;101118.75;;;4.88;68.86
80382;BME280;69692;55.820;37.490;2024-03-02T06:11:34;101112.22;;;4.82;68.86
80382;BME280;69692;55.820;37.490;2024-03-02T06:14:01;101117.22;;;4.77;68.38
80382;BME280;69692;55.820;37.490;2024-03-02T06:16:26;101118.34;;;4.74;68.42
80382;BME280;69692;55.820;37.490;2024-03-02T06:18:52;101117.81;;;4.71;68.29
80382;BME280;69692;55.820;37.490;2024-03-02T06:21:20;101116.09;;;4.88;68.31
80382;BME280;69692;55.820;37.490;2024-03-02T06:23:46;101123.25;;;4.87;68.43
80382;BME280;69692;55.820;37.490;2024-03-02T06:26:12;101126.56;;;4.81;68.56
80382;BME280;69692;55.820;37.490;2024-03-02T06:28:38;101126.25;;;4.84;68.18
80382;BME280;69692;55.820;37.490;2024-03-02T06:31:04;101122.25;;;4.88;68.32
80382;BME280;69692;55.820;37.490;2024-03-02T06:33:30;101114.56;;;4.85;67.92
80382;BME280;69692;55.820;37.490;2024-03-02T06:35:56;101123.94;;;4.89;68.21
80382;BME280;69692;55.820;37.490;2024-03-02T06:38:22;101122.25;;;4.88;67.62
80382;BME280;69692;55.820;37.490;2024-03-02T06:40:48;101118.81;;;4.96;67.75
80382;BME280;69692;55.820;37.490;2024-03-02T06:43:14;101119.75;;;4.87;67.82
80382;BME280;69692;55.820;37.490;2024-03-02T06:45:39;101123.31;;;4.95;68.14
80382;BME280;69692;55.820;37.490;2024-03-02T06:48:06;101120.16;;;5.00;68.32
80382;BME280;69692;55.820;37.490;2024-03-02T06:50:32;101117.56;;;5.08;68.11
80382;BME280;69692;55.820;37.490;2024-03-02T06:52:57;101126.84;;;5.04;66.99
80382;BME280;69692;55.820;37.490;2024-03-02T06:55:23;101119.00;;;5.02;67.94
80382;BME280;69692;55.820;37.490;2024-03-02T06:58:11;101122.56;;;5.11;66.82
80382;BME280;69692;55.820;37.490;2024-03-02T07:00:37;101120.00;;;5.01;67.13
80382;BME280;69692;55.820;37.490;2024-03-02T07:03:04;101121.41;;;5.14;67.76
80382;BME280;69692;55.820;37.490;2024-03-02T07:05:30;101123.44;;;5.20;67.41
80382;BME280;69692;55.820;37.490;2024-03-02T07:07:56;101127.94;;;5.19;67.08
80382;BME280;69692;55.820;37.490;2024-03-02T07:10:21;101124.31;;;5.28;67.32
80382;BME280;69692;55.820;37.490;2024-03-02T07:12:47;101128.50;;;5.31;66.38
80382;BME280;69692;55.820;37.490;2024-03-02T07:15:13;101124.47;;;5.27;67.15
80382;BME280;69692;55.820;37.490;2024-03-02T07:17:55;101126.31;;;5.26;66.76
80382;BME280;69692;55.820;37.490;2024-03-02T07:20:21;101126.47;;;5.25;66.17
80382;BME280;69692;55.820;37.490;2024-03-02T07:23:06;101129.06;;;5.08;67.33
80382;BME280;69692;55.820;37.490;2024-03-02T07:25:32;101134.41;;;5.08;67.02
80382;BME280;69692;55.820;37.490;2024-03-02T07:27:58;101131.91;;;5.07;67.35
80382;BME280;69692;55.820;37.490;2024-03-02T07:30:24;101137.00;;;5.00;66.99
80382;BME280;69692;55.820;37.490;2024-03-02T07:32:50;101132.09;;;5.14;66.75
80382;BME280;69692;55.820;37.490;2024-03-02T07:35:16;101130.72;;;5.09;67.69
80382;BME280;69692;55.820;37.490;2024-03-02T07:37:44;101120.91;;;5.18;67.24
80382;BME280;69692;55.820;37.490;2024-03-02T07:40:10;101120.16;;;5.26;67.05
80382;BME280;69692;55.820;37.490;2024-03-02T07:42:40;101127.66;;;5.30;66.99
80382;BME280;69692;55.820;37.490;2024-03-02T07:45:06;101122.66;;;5.35;66.03
80382;BME280;69692;55.820;37.490;2024-03-02T07:47:34;101111.03;;;5.36;66.94
80382;BME280;69692;55.820;37.490;2024-03-02T07:50:00;101103.47;;;5.32;65.56
80382;BME280;69692;55.820;37.490;2024-03-02T07:52:26;101103.38;;;5.42;66.01
80382;BME280;69692;55.820;37.490;2024-03-02T07:54:52;101112.16;;;5.34;65.99
80382;BME280;69692;55.820;37.490;2024-03-02T07:57:18;101105.97;;;5.33;66.75
80382;BME280;69692;55.820;37.490;2024-03-02T07:59:44;101116.50;;;5.35;65.95
80382;BME280;69692;55.820;37.490;2024-03-02T08:02:10;101107.66;;;5.34;66.31
80382;BME280;69692;55.820;37.490;2024-03-02T08:04:36;101109.69;;;5.41;65.82
80382;BME280;69692;55.820;37.490;2024-03-02T08:07:02;101109.03;;;5.38;65.67
80382;BME280;69692;55.820;37.490;2024-03-02T08:09:29;101104.38;;;5.49;65.81
80382;BME280;69692;55.820;37.490;2024-03-02T08:11:55;101106.97;;;5.66;65.24
80382;BME280;69692;55.820;37.490;2024-03-02T08:14:22;101102.47;;;5.67;65.25
80382;BME280;69692;55.820;37.490;2024-03-02T08:17:06;101099.28;;;5.80;64.95
80382;BME280;69692;55.820;37.490;2024-03-02T08:19:35;101103.13;;;5.77;65.24
80382;BME280;69692;55.820;37.490;2024-03-02T08:22:02;101108.66;;;5.84;64.95
80382;BME280;69692;55.820;37.490;2024-03-02T08:24:28;101110.53;;;5.91;63.99
80382;BME280;69692;55.820;37.490;2024-03-02T08:26:53;101101.34;;;5.94;64.44
80382;BME280;69692;55.820;37.490;2024-03-02T08:29:19;101111.94;;;5.61;64.35
80382;BME280;69692;55.820;37.490;2024-03-02T08:31:45;101108.88;;;5.48;64.80
80382;BME280;69692;55.820;37.490;2024-03-02T08:34:11;101106.75;;;5.60;65.46
80382;BME280;69692;55.820;37.490;2024-03-02T08:36:37;101110.81;;;5.72;63.98
80382;BME280;69692;55.820;37.490;2024-03-02T08:39:03;101104.97;;;5.77;64.56
80382;BME280;69692;55.820;37.490;2024-03-02T08:41:33;101109.47;;;5.76;63.91
80382;BME280;69692;55.820;37.490;2024-03-02T08:43:59;101104.78;;;5.78;63.58
80382;BME280;69692;55.820;37.490;2024-03-02T08:46:25;101113.81;;;5.77;63.83
80382;BME280;69692;55.820;37.490;2024-03-02T08:48:51;101101.28;;;5.69;63.41
80382;BME280;69692;55.820;37.490;2024-03-02T08:51:17;101102.97;;;5.71;64.05
80382;BME280;69692;55.820;37.490;2024-03-02T08:53:43;101102.78;;;5.80;63.38
80382;BME280;69692;55.820;37.490;2024-03-02T08:56:09;101103.00;;;5.87;63.26
80382;BME280;69692;55.820;37.490;2024-03-02T08:58:35;101105.38;;;5.98;62.95
80382;BME280;69692;55.820;37.490;2024-03-02T09:01:01;101101.41;;;6.10;62.73
80382;BME280;69692;55.820;37.490;2024-03-02T09:03:27;101108.22;;;6.21;62.49
80382;BME280;69692;55.820;37.490;2024-03-02T09:05:53;101095.91;;;6.28;61.84
80382;BME280;69692;55.820;37.490;2024-03-02T09:08:19;101105.56;;;6.29;62.50
80382;BME280;69692;55.820;37.490;2024-03-02T09:10:45;101097.22;;;6.32;62.05
80382;BME280;69692;55.820;37.490;2024-03-02T09:13:11;101092.38;;;6.36;61.15
80382;BME280;69692;55.820;37.490;2024-03-02T09:15:37;101097.91;;;6.42;61.26
80382;BME280;69692;55.820;37.490;2024-03-02T09:18:05;101092.88;;;6.55;61.30
80382;BME280;69692;55.820;37.490;2024-03-02T09:20:32;101095.34;;;6.65;61.34
80382;BME280;69692;55.820;37.490;2024-03-02T09:22:58;101087.50;;;6.64;60.56
80382;BME280;69692;55.820;37.490;2024-03-02T09:25:23;101081.34;;;6.55;60.72
80382;BME280;69692;55.820;37.490;2024-03-02T09:27:49;101084.69;;;6.49;61.00
80382;BME280;69692;55.820;37.490;2024-03-02T09:30:15;101090.34;;;6.38;61.25
80382;BME280;69692;55.820;37.490;2024-03-02T09:32:41;101090.53;;;6.12;62.13
80382;BME280;69692;55.820;37.490;2024-03-02T09:35:07;101088.47;;;5.81;62.02
80382;BME280;69692;55.820;37.490;2024-03-02T09:37:33;101082.19;;;5.98;62.00
80382;BME280;69692;55.820;37.490;2024-03-02T09:39:59;101083.16;;;6.06;62.20
80382;BME280;69692;55.820;37.490;2024-03-02T09:42:25;101084.03;;;5.98;61.70
80382;BME280;69692;55.820;37.490;2024-03-02T09:44:52;101081.16;;;5.91;62.03
80382;BME280;69692;55.820;37.490;2024-03-02T09:47:19;101077.16;;;6.04;62.30
80382;BME280;69692;55.820;37.490;2024-03-02T09:49:45;101078.50;;;6.16;61.97
80382;BME280;69692;55.820;37.490;2024-03-02T09:52:10;101077.91;;;5.80;61.86
80382;BME280;69692;55.820;37.490;2024-03-02T09:54:36;101073.94;;;5.84;63.11
80382;BME280;69692;55.820;37.490;2024-03-02T09:57:02;101071.66;;;5.97;62.31
80382;BME280;69692;55.820;37.490;2024-03-02T09:59:28;101079.84;;;6.04;61.81
80382;BME280;69692;55.820;37.490;2024-03-02T10:04:27;101079.69;;;6.30;61.11
80382;BME280;69692;55.820;37.490;2024-03-02T10:07:12;101073.16;;;6.48;60.79
80382;BME280;69692;55.820;37.490;2024-03-02T10:09:57;101076.16;;;6.62;60.19
80382;BME280;69692;55.820;37.490;2024-03-02T10:12:24;101072.00;;;6.43;61.07
80382;BME280;69692;55.820;37.490;2024-03-02T10:15:03;101073.50;;;6.37;60.74
80382;BME280;69692;55.820;37.490;2024-03-02T10:17:31;101074.31;;;6.21;61.85
80382;BME280;69692;55.820;37.490;2024-03-02T10:19:57;101076.34;;;6.36;61.71
80382;BME280;69692;55.820;37.490;2024-03-02T10:22:23;101076.00;;;6.31;60.99
80382;BME280;69692;55.820;37.490;2024-03-02T10:24:49;101079.50;;;6.47;60.62
80382;BME280;69692;55.820;37.490;2024-03-02T10:27:17;101076.31;;;6.52;60.25
80382;BME280;69692;55.820;37.490;2024-03-02T10:29:46;101082.53;;;6.44;59.92
80382;BME280;69692;55.820;37.490;2024-03-02T10:32:13;101083.84;;;6.24;60.47
80382;BME280;69692;55.820;37.490;2024-03-02T10:34:43;101078.50;;;6.24;61.15
80382;BME280;69692;55.820;37.490;2024-03-02T10:37:14;101080.84;;;6.35;61.00
80382;BME280;69692;55.820;37.490;2024-03-02T10:39:40;101093.38;;;6.35;61.21
80382;BME280;69692;55.820;37.490;2024-03-02T10:42:07;101097.91;;;6.42;61.35
80382;BME280;69692;55.820;37.490;2024-03-02T10:44:33;101093.53;;;6.49;59.90
80382;BME280;69692;55.820;37.490;2024-03-02T10:47:04;101094.38;;;6.58;59.37
80382;BME280;69692;55.820;37.490;2024-03-02T10:49:32;101093.50;;;6.66;59.73
80382;BME280;69692;55.820;37.490;2024-03-02T10:51:58;101094.19;;;6.76;59.90
80382;BME280;69692;55.820;37.490;2024-03-02T10:54:25;101097.50;;;6.78;58.93
80382;BME280;69692;55.820;37.490;2024-03-02T10:56:58;101089.34;;;6.63;59.08
80382;BME280;69692;55.820;37.490;2024-03-02T10:59:36;101099.88;;;6.48;59.41
80382;BME280;69692;55.820;37.490;2024-03-02T11:02:03;101095.88;;;6.52;60.38
80382;BME280;69692;55.820;37.490;2024-03-02T11:04:31;101083.84;;;6.56;60.15
80382;BME280;69692;55.820;37.490;2024-03-02T11:07:07;101087.16;;;6.67;59.62
80382;BME280;69692;55.820;37.490;2024-03-02T11:09:41;101097.84;;;6.67;59.55
80382;BME280;69692;55.820;37.490;2024-03-02T11:12:19;101093.47;;;6.82;59.28
80382;BME280;69692;55.820;37.490;2024-03-02T11:14:51;101088.13;;;6.90;59.08
80382;BME280;69692;55.820;37.490;2024-03-02T11:17:20;101081.78;;;6.91;59.12
80382;BME280;69692;55.820;37.490;2024-03-02T11:19:47;101094.50;;;6.89;58.62
80382;BME280;69692;55.820;37.490;2024-03-02T11:22:14;101089.34;;;6.71;59.41
80382;BME280;69692;55.820;37.490;2024-03-02T11:24:50;101088.84;;;6.60;59.00
80382;BME280;69692;55.820;37.490;2024-03-02T11:33:00;101097.50;;;6.78;58.66
80382;BME280;69692;55.820;37.490;2024-03-02T11:35:27;101092.38;;;6.36;59.46
80382;BME280;69692;55.820;37.490;2024-03-02T11:37:55;101087.69;;;6.38;59.81
80382;BME280;69692;55.820;37.490;2024-03-02T11:40:25;101089.69;;;6.36;59.25
80382;BME280;69692;55.820;37.490;2024-03-02T11:42:51;101078.50;;;6.48;59.31
80382;BME280;69692;55.820;37.490;2024-03-02T11:45:23;101076.97;;;6.62;58.86
80382;BME280;69692;55.820;37.490;2024-03-02T11:47:57;101072.00;;;6.43;58.60
80382;BME280;69692;55.820;37.490;2024-03-02T11:50:46;101069.84;;;6.30;59.01
80382;BME280;69692;55.820;37.490;2024-03-02T11:53:13;101060.63;;;6.49;59.22
80382;BME280;69692;55.820;37.490;2024-03-02T11:55:40;101061.28;;;6.59;59.40
80382;BME280;69692;55.820;37.490;2024-03-02T11:58:24;101068.59;;;6.73;58.76
80382;BME280;69692;55.820;37.490;2024-03-02T12:00:55;101066.25;;;6.78;58.67
80382;BME280;69692;55.820;37.490;2024-03-02T12:03:23;101071.41;;;6.88;58.55
80382;BME280;69692;55.820;37.490;2024-03-02T12:05:52;101064.69;;;7.00;57.98
80382;BME280;69692;55.820;37.490;2024-03-02T12:08:19;101062.03;;;7.00;57.79
80382;BME280;69692;55.820;37.490;2024-03-02T12:10:59;101070.59;;;6.87;58.15
80382;BME280;69692;55.820;37.490;2024-03-02T12:13:28;101066.72;;;6.82;58.29
80382;BME280;69692;55.820;37.490;2024-03-02T12:15:55;101075.09;;;6.87;58.11
80382;BME280;69692;55.820;37.490;2024-03-02T12:18:24;101074.09;;;6.80;58.23
80382;BME280;69692;55.820;37.490;2024-03-02T12:20:52;101066.06;;;6.88;57.88
80382;BME280;69692;55.820;37.490;2024-03-02T12:23:18;101063.22;;;6.90;58.30
80382;BME280;69692;55.820;37.490;2024-03-02T12:25:45;101065.41;;;6.78;58.23
80382;BME280;69692;55.820;37.490;2024-03-02T12:28:12;101069.13;;;6.61;58.03
80382;BME280;69692;55.820;37.490;2024-03-02T12:30:39;101072.16;;;6.49;59.09
80382;BME280;69692;55.820;37.490;2024-03-02T12:33:07;101073.16;;;6.24;58.99
80382;BME280;69692;55.820;37.490;2024-03-02T12:35:33;101071.31;;;6.33;59.10
80382;BME280;69692;55.820;37.490;2024-03-02T12:37:59;101066.81;;;6.33;59.15
80382;BME280;69692;55.820;37.490;2024-03-02T12:40:25;101064.31;;;6.32;58.94
80382;BME280;69692;55.820;37.490;2024-03-02T12:42:51;101073.84;;;6.42;59.00
80382;BME280;69692;55.820;37.490;2024-03-02T12:45:17;101074.16;;;6.39;58.92
80382;BME280;69692;55.820;37.490;2024-03-02T12:47:50;101069.50;;;6.41;58.96
80382;BME280;69692;55.820;37.490;2024-03-02T12:50:17;101074.16;;;6.31;58.58
80382;BME280;69692;55.820;37.490;2024-03-02T12:52:43;101070.84;;;6.29;58.67
80382;BME280;69692;55.820;37.490;2024-03-02T12:55:09;101065.50;;;6.29;59.40
80382;BME280;69692;55.820;37.490;2024-03-02T12:57:35;101078.19;;;6.27;59.36
80382;BME280;69692;55.820;37.490;2024-03-02T13:00:03;101077.34;;;6.26;59.34
80382;BME280;69692;55.820;37.490;2024-03-02T13:02:41;101080.19;;;6.17;60.02
80382;BME280;69692;55.820;37.490;2024-03-02T13:05:08;101075.31;;;6.04;59.68
80382;BME280;69692;55.820;37.490;2024-03-02T13:07:38;101068.31;;;6.03;59.86
80382;BME280;69692;55.820;37.490;2024-03-02T13:10:05;101083.13;;;5.81;60.48